createdAt,value
2019-03-08T00:05:34.418Z,1.40
2019-03-08T00:10:29.170Z,1.43
2019-03-08T00:15:36.163Z,1.70
2019-03-08T00:20:30.909Z,1.80
2019-03-08T00:25:25.730Z,1.43
2019-03-08T00:30:20.977Z,1.20
2019-03-08T00:35:16.096Z,1.40
2019-03-08T00:40:15.619Z,1.27
2019-03-08T00:45:22.749Z,1.47
2019-03-08T00:50:17.494Z,1.40
2019-03-08T00:55:12.329Z,1.40
2019-03-08T01:00:11.567Z,1.33
2019-03-08T01:05:10.732Z,1.50
2019-03-08T01:10:07.504Z,1.57
2019-03-08T01:15:11.944Z,1.40
2019-03-08T01:20:32.675Z,1.60
2019-03-08T01:25:39.570Z,1.73
2019-03-08T01:30:34.557Z,2.00
2019-03-08T01:35:29.444Z,2.13
2019-03-08T01:40:24.263Z,1.60
2019-03-08T01:45:27.542Z,1.30
2019-03-08T01:50:23.985Z,1.70
2019-03-08T01:55:18.797Z,1.50
2019-03-08T02:00:15.802Z,1.63
2019-03-08T02:05:10.611Z,1.70
2019-03-08T02:10:06.142Z,1.67
2019-03-08T02:15:12.485Z,1.60
2019-03-08T02:20:08.349Z,1.40
2019-03-08T02:25:03.108Z,1.53
2019-03-08T02:29:57.884Z,1.80
2019-03-08T02:34:56.116Z,1.43
2019-03-08T02:39:50.930Z,1.40
2019-03-08T02:44:48.630Z,1.47
2019-03-08T02:49:43.485Z,1.40
2019-03-08T02:54:38.235Z,2.03
2019-03-08T02:59:47.950Z,1.10
2019-03-08T03:04:46.371Z,1.60
2019-03-08T03:10:06.460Z,1.00
2019-03-08T03:15:01.495Z,1.73
2019-03-08T03:19:56.237Z,1.90
2019-03-08T03:24:51.325Z,1.40
2019-03-08T03:29:53.094Z,1.80
2019-03-08T03:34:47.885Z,1.77
2019-03-08T03:39:42.596Z,1.60
2019-03-08T03:44:39.672Z,1.40
2019-03-08T03:49:34.687Z,1.40
2019-03-08T03:54:30.427Z,1.83
2019-03-08T03:59:36.962Z,1.30
2019-03-08T04:04:48.525Z,1.20
2019-03-08T04:10:04.202Z,1.30
2019-03-08T04:14:59.050Z,1.43
2019-03-08T04:19:53.798Z,1.20
2019-03-08T04:24:52.240Z,1.27
2019-03-08T04:29:56.717Z,1.00
2019-03-08T04:34:51.639Z,1.17
2019-03-08T04:39:48.337Z,1.43
2019-03-08T04:44:46.109Z,1.43
2019-03-08T04:49:40.871Z,1.47
2019-03-08T04:54:35.605Z,1.53
2019-03-08T04:59:30.338Z,1.37
2019-03-08T05:04:25.091Z,1.20
2019-03-08T05:09:19.830Z,1.70
2019-03-08T05:14:14.565Z,1.33
2019-03-08T05:19:09.573Z,1.47
2019-03-08T05:24:04.351Z,1.03
2019-03-08T05:29:02.246Z,1.33
2019-03-08T05:33:57.297Z,1.47
2019-03-08T05:38:52.037Z,1.70
2019-03-08T05:44:04.810Z,1.20
2019-03-08T05:49:20.529Z,1.50
2019-03-08T05:54:31.449Z,2.00
2019-03-08T05:59:26.209Z,2.23
2019-03-08T06:04:23.418Z,1.50
2019-03-08T06:09:29.621Z,2.00
2019-03-08T06:14:42.061Z,2.17
2019-03-08T06:19:50.566Z,1.77
2019-03-08T06:25:09.323Z,1.43
2019-03-08T06:30:04.423Z,2.30
2019-03-08T06:34:59.462Z,4.03
2019-03-08T06:39:54.492Z,4.90
2019-03-08T06:44:52.372Z,2.13
2019-03-08T06:49:53.177Z,1.57
2019-03-08T06:54:48.115Z,1.60
2019-03-08T06:59:47.168Z,1.87
2019-03-08T07:04:41.933Z,1.93
2019-03-08T07:09:39.982Z,2.00
2019-03-08T07:14:34.968Z,1.53
2019-03-08T07:19:40.791Z,2.20
2019-03-08T07:24:47.796Z,1.73
2019-03-08T07:30:05.389Z,1.70
2019-03-08T07:35:18.201Z,2.03
2019-03-08T07:40:20.653Z,1.77
2019-03-08T07:45:49.842Z,2.27
2019-03-08T07:51:00.237Z,2.00
2019-03-08T07:56:12.898Z,2.10
2019-03-08T08:01:25.908Z,2.10
2019-03-08T08:06:38.452Z,1.83
2019-03-08T08:11:45.656Z,1.90
2019-03-08T08:17:02.527Z,2.10
2019-03-08T08:22:20.720Z,2.13
2019-03-08T08:27:22.913Z,2.37
2019-03-08T08:32:39.709Z,2.20
2019-03-08T08:38:01.180Z,2.27
2019-03-08T08:43:14.915Z,2.23
2019-03-08T08:48:34.807Z,2.40
2019-03-08T08:53:38.659Z,2.60
2019-03-08T08:58:52.508Z,2.43
2019-03-08T09:04:14.213Z,2.03
2019-03-08T09:09:25.256Z,2.30
2019-03-08T09:14:28.496Z,2.73
2019-03-08T09:19:42.871Z,2.50
2019-03-08T09:25:03.449Z,2.13
2019-03-08T09:30:26.752Z,2.00
2019-03-08T09:35:36.457Z,1.50
2019-03-08T09:40:41.226Z,1.40
2019-03-08T09:45:59.401Z,1.10
2019-03-08T09:51:02.794Z,1.30
2019-03-08T09:56:03.992Z,1.30
2019-03-08T10:01:17.101Z,1.10
2019-03-08T10:06:29.844Z,1.00
2019-03-08T10:11:34.072Z,1.50
2019-03-08T10:16:47.839Z,0.80
2019-03-08T10:22:17.100Z,0.97
2019-03-08T10:27:23.418Z,1.27
2019-03-08T10:32:41.052Z,1.03
2019-03-08T10:37:54.894Z,1.10
2019-03-08T10:42:55.088Z,1.10
2019-03-08T10:48:02.604Z,1.13
2019-03-08T10:53:24.035Z,1.27
2019-03-08T10:58:26.706Z,1.00
2019-03-08T11:03:46.480Z,1.27
2019-03-08T11:08:49.079Z,1.20
2019-03-08T11:14:07.750Z,1.90
2019-03-08T11:19:09.626Z,1.80
2019-03-08T11:24:24.929Z,2.97
2019-03-08T11:29:41.025Z,1.80
2019-03-08T11:34:52.189Z,1.90
2019-03-08T11:40:23.300Z,2.00
2019-03-08T11:45:37.655Z,2.27
2019-03-08T11:51:01.886Z,2.10
2019-03-08T11:56:15.737Z,2.20
2019-03-08T12:01:21.085Z,2.30
2019-03-08T12:06:44.465Z,2.60
2019-03-08T12:11:48.143Z,1.87
2019-03-08T12:17:11.039Z,2.40
2019-03-08T12:22:28.090Z,2.73
2019-03-08T12:27:44.721Z,2.20
2019-03-08T12:33:04.632Z,2.50
2019-03-08T12:38:16.716Z,2.20
2019-03-08T12:43:30.796Z,2.30
2019-03-08T12:48:43.282Z,2.10
2019-03-08T12:54:01.066Z,2.00
2019-03-08T12:59:01.207Z,2.30
2019-03-08T13:04:07.068Z,1.90
2019-03-08T13:09:14.577Z,2.17
2019-03-08T13:14:09.342Z,2.07
2019-03-08T13:19:04.230Z,2.13
2019-03-08T13:24:02.071Z,2.30
2019-03-08T13:28:57.893Z,2.10
2019-03-08T13:33:56.037Z,2.27
2019-03-08T13:38:50.781Z,1.97
2019-03-08T13:43:47.610Z,2.07
2019-03-08T13:48:42.428Z,2.07
2019-03-08T13:53:37.639Z,2.10
2019-03-08T13:58:33.094Z,3.37
2019-03-08T14:03:27.856Z,2.50
2019-03-08T14:08:22.685Z,2.43
2019-03-08T14:13:20.759Z,2.50
2019-03-08T14:18:15.496Z,3.13
2019-03-08T14:23:10.320Z,2.47
2019-03-08T14:28:05.139Z,2.70
2019-03-08T14:33:03.114Z,2.00
2019-03-08T14:38:00.929Z,2.13
2019-03-08T14:43:13.160Z,2.40
2019-03-08T14:48:09.595Z,1.93
2019-03-08T14:53:03.541Z,2.50
2019-03-08T14:58:00.832Z,2.10
2019-03-08T15:13:57.996Z,1.83
2019-03-08T15:18:52.672Z,2.53
2019-03-08T15:23:50.766Z,2.27
2019-03-08T15:28:43.895Z,2.40
2019-03-08T15:33:38.673Z,2.07
2019-03-08T15:38:33.467Z,2.20
2019-03-08T15:43:28.358Z,5.53
2019-03-08T15:48:40.294Z,2.30
2019-03-08T15:53:35.301Z,2.23
2019-03-08T15:58:30.082Z,2.37
2019-03-08T16:03:24.943Z,2.73
2019-03-08T16:08:25.671Z,2.30
2019-03-08T16:13:20.429Z,2.00
2019-03-08T16:18:15.480Z,2.10
2019-03-08T16:23:10.281Z,1.83
2019-03-08T16:28:05.115Z,2.00
2019-03-08T16:33:26.191Z,1.93
2019-03-08T16:38:30.693Z,1.90
2019-03-08T16:43:47.014Z,2.10
2019-03-08T16:48:47.379Z,2.20
2019-03-08T16:53:54.196Z,2.10
2019-03-08T16:58:56.455Z,2.17
2019-03-08T17:04:25.205Z,2.60
2019-03-08T17:09:38.988Z,2.80
2019-03-08T17:14:50.546Z,2.70
2019-03-08T17:20:03.975Z,1.80
2019-03-08T17:25:07.591Z,2.10
2019-03-08T17:30:12.549Z,2.30
2019-03-08T17:35:28.811Z,2.30
2019-03-08T17:40:42.608Z,2.40
2019-03-08T17:45:49.615Z,2.47
2019-03-08T17:51:00.397Z,1.97
2019-03-08T17:56:02.580Z,2.40
2019-03-08T18:01:22.189Z,2.57
2019-03-08T18:06:26.210Z,2.93
2019-03-08T18:11:43.062Z,3.97
2019-03-08T18:17:06.609Z,3.90
2019-03-08T18:22:09.017Z,3.20
2019-03-08T18:27:09.350Z,4.20
2019-03-08T18:32:30.890Z,3.10
2019-03-08T18:37:43.644Z,4.27
2019-03-08T18:42:58.907Z,2.90
2019-03-08T18:48:18.564Z,2.90
2019-03-08T18:53:38.402Z,2.27
2019-03-08T18:58:48.369Z,2.30
2019-03-08T19:04:20.501Z,2.23
2019-03-08T19:09:20.823Z,2.30
2019-03-08T19:14:44.177Z,2.67
2019-03-08T19:20:03.998Z,2.53
2019-03-08T19:25:20.843Z,2.30
2019-03-08T19:30:50.835Z,2.30
2019-03-08T19:36:02.751Z,2.70
2019-03-08T19:41:07.296Z,2.73
2019-03-08T19:46:17.535Z,2.40
2019-03-08T19:51:29.813Z,2.40
2019-03-08T19:56:42.494Z,2.37
2019-03-08T20:01:58.438Z,2.27
2019-03-08T20:07:15.156Z,2.40
2019-03-08T20:12:28.288Z,2.50
2019-03-08T20:17:29.243Z,2.07
2019-03-08T20:22:29.848Z,2.40
2019-03-08T20:27:39.134Z,2.00
2019-03-08T20:32:49.830Z,2.40
2019-03-08T20:38:02.861Z,2.47
2019-03-08T20:43:04.246Z,2.63
2019-03-08T20:47:59.184Z,2.60
2019-03-08T20:52:53.960Z,2.77
2019-03-08T20:57:49.034Z,2.57
2019-03-08T21:02:44.135Z,2.60
2019-03-08T21:07:40.689Z,2.80
2019-03-08T21:12:35.452Z,2.00
2019-03-08T21:17:30.419Z,2.43
2019-03-08T21:22:25.522Z,2.60
2019-03-08T21:27:20.295Z,3.70
2019-03-08T21:32:15.339Z,2.90
2019-03-08T21:37:10.362Z,2.80
2019-03-08T21:42:05.458Z,3.23
2019-03-08T21:47:00.405Z,2.77
2019-03-08T21:51:55.167Z,2.40
2019-03-08T21:56:49.941Z,2.90
2019-03-08T22:01:45.415Z,2.50
2019-03-08T22:06:43.222Z,2.70
2019-03-08T22:11:41.950Z,2.50
2019-03-08T22:16:38.715Z,2.60
2019-03-08T22:21:33.807Z,2.47
2019-03-08T22:26:30.590Z,2.50
2019-03-08T22:31:25.693Z,2.93
2019-03-08T22:36:20.821Z,2.63
2019-03-08T22:41:15.577Z,2.43
2019-03-08T22:46:10.338Z,2.40
2019-03-08T22:51:05.174Z,2.47
2019-03-08T22:55:59.930Z,2.53
2019-03-08T23:01:07.239Z,2.10
2019-03-08T23:06:02.446Z,2.43
2019-03-08T23:10:57.850Z,2.37
2019-03-08T23:15:52.689Z,2.20
2019-03-08T23:20:47.549Z,2.20
2019-03-08T23:25:42.931Z,2.53
2019-03-08T23:30:37.742Z,2.50
2019-03-08T23:35:32.510Z,2.17
2019-03-08T23:40:27.270Z,2.47
2019-03-08T23:45:27.310Z,2.20
2019-03-08T23:50:22.068Z,2.37
2019-03-08T23:55:16.825Z,2.13
